Fin-ally — WDG3773 — position and weather

sailwx.info

Track history (hours):
 
Tides and Currents Weather Stations Pressure Air Temp Water Temp Dewpoint Dewpoint Depression Visibility Wind Speed Wind Dir Waves Ship Positions

Fin-ally

More information available from US FCC via Universal Licensing System and Coast Guard Vessel Documentation Center.

Last reported at 2014-Aug-07 16:27 UTC. Time now 2014-Aug-23 03:40 UTC.
Position N 41°20' W 072°11'.
Warning: this ship's position is 15 days out of date.

Type: Pleasure craft. MMSI: 367529510.

Date/timePositionNaut miles runAvg speedWind from/ knotsBaromVisibWave heightAir tempDewpointWater temp
2014-Aug-07 16:27N 41°20' W 072°11'0 0.0
2014-Aug-07 15:33N 41°20' W 072°11'0 0.0
2014-Aug-07 14:33N 41°20' W 072°11'0 0.0
2014-Aug-07 13:33N 41°20' W 072°11'1716.9
2014-Aug-07 12:33N 41°13' W 071°50'1211.9
2014-Aug-07 11:32N 41°11' W 071°35'0 0.0
2014-Aug-07 10:32N 41°11' W 071°35'0 0.0
2014-Aug-07 09:32N 41°11' W 071°35'0 0.0
2014-Aug-07 08:32N 41°11' W 071°35'0 0.0
2014-Aug-07 07:32N 41°11' W 071°35'0 0.0
2014-Aug-07 06:32N 41°11' W 071°35'0 0.0
2014-Aug-07 05:32N 41°11' W 071°35'0 0.0
2014-Aug-07 04:32N 41°11' W 071°35'0 0.0
2014-Aug-07 03:32N 41°11' W 071°35'0 0.0
2014-Aug-07 02:32N 41°11' W 071°35'0 0.0
2014-Aug-07 01:32N 41°11' W 071°35'0 0.0
2014-Aug-07 00:32N 41°11' W 071°35'0 0.0
2014-Aug-06 23:32N 41°11' W 071°35'0 0.0
2014-Aug-06 22:32N 41°11' W 071°35'0 0.0
2014-Aug-06 21:32N 41°11' W 071°35'0 0.0
2014-Aug-06 20:32N 41°11' W 071°35'0 0.0
2014-Aug-06 19:32N 41°11' W 071°35'1 0.6
2014-Aug-06 18:33N 41°12' W 071°35'4 4.2
2014-Aug-06 17:33N 41°08' W 071°37'7 6.3
2014-Aug-06 16:31N 41°13' W 071°33'3 3.2
2014-Aug-06 15:33N 41°10' W 071°32'6 5.9
2014-Aug-06 14:33N 41°09' W 071°40'0 0.5
2014-Aug-06 13:31N 41°09' W 071°39'1 0.6
2014-Aug-06 12:32N 41°09' W 071°40'5 4.3
2014-Aug-06 11:28N 41°11' W 071°35'0 0.0
2014-Aug-06 10:31N 41°11' W 071°35'0 0.0
2014-Aug-06 09:31N 41°11' W 071°35'0 0.0
2014-Aug-06 08:32N 41°11' W 071°35'0 0.0
2014-Aug-06 07:31N 41°11' W 071°35'0 0.0
2014-Aug-06 06:31N 41°11' W 071°35'0 0.0
2014-Aug-06 05:31N 41°11' W 071°35'0 0.0
2014-Aug-06 04:31N 41°11' W 071°35'0 0.0
2014-Aug-06 03:31N 41°11' W 071°35'0 0.0
2014-Aug-06 02:31N 41°11' W 071°35'0 0.0
2014-Aug-06 01:31N 41°11' W 071°35'0 0.0
2014-Aug-06 00:31N 41°11' W 071°35'0 0.0
2014-Aug-05 23:28N 41°11' W 071°35'0 0.0
2014-Aug-05 22:31N 41°11' W 071°35'0 0.0
2014-Aug-05 21:31N 41°11' W 071°35'0 0.0
2014-Aug-05 20:31N 41°11' W 071°35'1 0.9
2014-Aug-05 19:33N 41°12' W 071°35'2424.4
2014-Aug-05 18:33N 40°50' W 071°22'24 0.5
2014-Aug-03 18:19N 41°12' W 071°35'1722.7
2014-Aug-03 17:33N 41°14' W 071°58'  
2014-Aug-01 02:29N 41°20' W 072°11'0 0.0
2014-Aug-01 01:32N 41°20' W 072°11'0 0.0
2014-Aug-01 00:32N 41°20' W 072°11'0 0.0
2014-Jul-31 23:32N 41°20' W 072°11'0 0.0
2014-Jul-31 22:32N 41°20' W 072°11'0 0.0
2014-Jul-31 21:32N 41°20' W 072°11'0 0.0
2014-Jul-31 20:32N 41°20' W 072°11'0 0.0
2014-Jul-31 19:32N 41°20' W 072°11'2 1.8
2014-Jul-31 18:33N 41°18' W 072°12'2 1.7
2014-Jul-31 17:31N 41°20' W 072°11'0 0.4
2014-Jul-31 16:31N 41°20' W 072°11'0 0.0
2014-Jul-29 14:22N 41°20' W 072°11'  
Track history (hours):
 
Tides and Currents Weather Stations Pressure Air Temp Water Temp Dewpoint Dewpoint Depression Visibility Wind Speed Wind Dir Waves Ship Positions

Fin-ally

More information available from US FCC via Universal Licensing System and Coast Guard Vessel Documentation Center.

Last reported at 2014-Aug-07 16:27 UTC. Time now 2014-Aug-23 03:40 UTC.
Position N 41°20' W 072°11'.
Warning: this ship's position is 15 days out of date.

Type: Pleasure craft. MMSI: 367529510.

Date/timePositionNaut miles runAvg speedWind from/ knotsBaromVisibWave heightAir tempDewpointWater temp
2014-Aug-07 16:27N 41°20' W 072°11'0 0.0
2014-Aug-07 15:33N 41°20' W 072°11'0 0.0
2014-Aug-07 14:33N 41°20' W 072°11'0 0.0
2014-Aug-07 13:33N 41°20' W 072°11'1716.9
2014-Aug-07 12:33N 41°13' W 071°50'1211.9
2014-Aug-07 11:32N 41°11' W 071°35'0 0.0
2014-Aug-07 10:32N 41°11' W 071°35'0 0.0
2014-Aug-07 09:32N 41°11' W 071°35'0 0.0
2014-Aug-07 08:32N 41°11' W 071°35'0 0.0
2014-Aug-07 07:32N 41°11' W 071°35'0 0.0
2014-Aug-07 06:32N 41°11' W 071°35'0 0.0
2014-Aug-07 05:32N 41°11' W 071°35'0 0.0
2014-Aug-07 04:32N 41°11' W 071°35'0 0.0
2014-Aug-07 03:32N 41°11' W 071°35'0 0.0
2014-Aug-07 02:32N 41°11' W 071°35'0 0.0
2014-Aug-07 01:32N 41°11' W 071°35'0 0.0
2014-Aug-07 00:32N 41°11' W 071°35'0 0.0
2014-Aug-06 23:32N 41°11' W 071°35'0 0.0
2014-Aug-06 22:32N 41°11' W 071°35'0 0.0
2014-Aug-06 21:32N 41°11' W 071°35'0 0.0
2014-Aug-06 20:32N 41°11' W 071°35'0 0.0
2014-Aug-06 19:32N 41°11' W 071°35'1 0.6
2014-Aug-06 18:33N 41°12' W 071°35'4 4.2
2014-Aug-06 17:33N 41°08' W 071°37'7 6.3
2014-Aug-06 16:31N 41°13' W 071°33'3 3.2
2014-Aug-06 15:33N 41°10' W 071°32'6 5.9
2014-Aug-06 14:33N 41°09' W 071°40'0 0.5
2014-Aug-06 13:31N 41°09' W 071°39'1 0.6
2014-Aug-06 12:32N 41°09' W 071°40'5 4.3
2014-Aug-06 11:28N 41°11' W 071°35'0 0.0
2014-Aug-06 10:31N 41°11' W 071°35'0 0.0
2014-Aug-06 09:31N 41°11' W 071°35'0 0.0
2014-Aug-06 08:32N 41°11' W 071°35'0 0.0
2014-Aug-06 07:31N 41°11' W 071°35'0 0.0
2014-Aug-06 06:31N 41°11' W 071°35'0 0.0
2014-Aug-06 05:31N 41°11' W 071°35'0 0.0
2014-Aug-06 04:31N 41°11' W 071°35'0 0.0
2014-Aug-06 03:31N 41°11' W 071°35'0 0.0
2014-Aug-06 02:31N 41°11' W 071°35'0 0.0
2014-Aug-06 01:31N 41°11' W 071°35'0 0.0
2014-Aug-06 00:31N 41°11' W 071°35'0 0.0
2014-Aug-05 23:28N 41°11' W 071°35'0 0.0
2014-Aug-05 22:31N 41°11' W 071°35'0 0.0
2014-Aug-05 21:31N 41°11' W 071°35'0 0.0
2014-Aug-05 20:31N 41°11' W 071°35'1 0.9
2014-Aug-05 19:33N 41°12' W 071°35'2424.4
2014-Aug-05 18:33N 40°50' W 071°22'24 0.5
2014-Aug-03 18:19N 41°12' W 071°35'1722.7
2014-Aug-03 17:33N 41°14' W 071°58'  
2014-Aug-01 02:29N 41°20' W 072°11'0 0.0
2014-Aug-01 01:32N 41°20' W 072°11'0 0.0
2014-Aug-01 00:32N 41°20' W 072°11'0 0.0
2014-Jul-31 23:32N 41°20' W 072°11'0 0.0
2014-Jul-31 22:32N 41°20' W 072°11'0 0.0
2014-Jul-31 21:32N 41°20' W 072°11'0 0.0
2014-Jul-31 20:32N 41°20' W 072°11'0 0.0
2014-Jul-31 19:32N 41°20' W 072°11'2 1.8
2014-Jul-31 18:33N 41°18' W 072°12'2 1.7
2014-Jul-31 17:31N 41°20' W 072°11'0 0.4
2014-Jul-31 16:31N 41°20' W 072°11'0 0.0
2014-Jul-29 14:22N 41°20' W 072°11'  

Dump ship's entire track history